Time;durP1;ratioP1;P1;durP2;ratioP2;P2;SDS_P1;SDS_P2;PMS_P1;PMS_P2;Temp;Humidity;BMP_temperature;BMP_pressure;BME280_temperature;BME280_humidity;BME280_pressure;Samples;Min_cycle;Max_cycle;Signal;HPM_P1;HPM_P2
2022/10/10 00:01:16;;;;;;;8.75;5.10;;;19.30;65.60;;;;;;5034242;28;20032;-52
2022/10/10 00:03:43;;;;;;;7.50;4.20;;;19.30;65.40;;;;;;5034416;28;20450;-56
2022/10/10 00:06:10;;;;;;;8.80;4.43;;;19.30;65.50;;;;;;5034692;28;20035;-57
2022/10/10 00:08:36;;;;;;;5.63;3.85;;;19.20;65.40;;;;;;5034129;28;20518;-56
2022/10/10 00:11:03;;;;;;;7.73;4.40;;;19.30;65.20;;;;;;5034609;28;20033;-56
2022/10/10 00:13:29;;;;;;;8.82;4.13;;;19.30;64.90;;;;;;5034036;28;20053;-55
2022/10/10 00:15:54;;;;;;;6.38;3.78;;;19.30;64.90;;;;;;5034485;28;20399;-52
2022/10/10 00:18:20;;;;;;;8.00;3.72;;;19.30;64.60;;;;;;5033641;28;20103;-56
2022/10/10 00:20:46;;;;;;;5.88;3.45;;;19.30;64.50;;;;;;5034097;28;20025;-56
2022/10/10 00:23:12;;;;;;;9.77;3.55;;;19.30;64.10;;;;;;5032297;28;20026;-54
2022/10/10 00:25:37;;;;;;;5.18;3.45;;;19.30;64.10;;;;;;5034461;28;20076;-56
2022/10/10 00:28:04;;;;;;;9.85;4.47;;;19.20;64.30;;;;;;5034013;28;20041;-55
2022/10/10 00:30:30;;;;;;;7.95;4.28;;;19.20;64.40;;;;;;5032614;28;20392;-56
2022/10/10 00:32:58;;;;;;;5.00;3.20;;;19.20;63.90;;;;;;5033954;28;20068;-56
2022/10/10 00:35:25;;;;;;;10.20;3.25;;;19.20;64.00;;;;;;5033758;28;20078;-57
2022/10/10 00:37:50;;;;;;;5.45;3.50;;;19.20;64.00;;;;;;5033683;28;20660;-54
2022/10/10 00:40:16;;;;;;;7.90;4.25;;;19.20;64.00;;;;;;5033594;28;20014;-54
2022/10/10 00:42:42;;;;;;;10.50;4.85;;;19.20;64.20;;;;;;5033509;28;20029;-56
2022/10/10 00:45:40;;;;;;;5.50;3.80;;;19.20;64.00;;;;;;5033481;28;20029;-55
2022/10/10 00:48:16;;;;;;;6.65;4.03;;;19.20;63.00;;;;;;5032686;28;20556;-59
2022/10/10 00:50:49;;;;;;;6.35;3.47;;;19.20;63.10;;;;;;5033112;28;20831;-54
2022/10/10 00:53:18;;;;;;;8.77;3.92;;;19.20;63.20;;;;;;5032249;28;20030;-57
2022/10/10 00:55:44;;;;;;;12.18;4.00;;;19.20;63.20;;;;;;5033460;28;20083;-57
2022/10/10 00:58:11;;;;;;;9.15;4.07;;;19.20;63.20;;;;;;5033857;28;20041;-55
2022/10/10 01:00:37;;;;;;;6.95;3.55;;;19.20;63.10;;;;;;5032878;28;20029;-56
2022/10/10 01:03:02;;;;;;;6.03;3.70;;;19.20;63.00;;;;;;5033199;28;20033;-52
2022/10/10 01:05:29;;;;;;;5.97;3.42;;;19.20;63.10;;;;;;5033564;28;20025;-55
2022/10/10 01:07:55;;;;;;;7.38;4.07;;;19.20;63.20;;;;;;5033518;28;20029;-56
2022/10/10 01:10:23;;;;;;;7.78;3.78;;;19.20;62.90;;;;;;5032741;28;20494;-52
2022/10/10 01:13:00;;;;;;;7.28;3.58;;;19.20;63.10;;;;;;5033090;28;20083;-51
2022/10/10 01:16:00;;;;;;;5.75;3.78;;;19.20;62.90;;;;;;5033055;28;20029;-56
2022/10/10 01:18:53;;;;;;;8.13;4.45;;;19.20;63.10;;;;;;5032749;28;20423;-54
2022/10/10 01:21:27;;;;;;;6.55;3.33;;;19.20;62.80;;;;;;5016968;28;20036;-54
2022/10/10 01:24:15;;;;;;;9.80;3.75;;;19.20;62.40;;;;;;5033008;28;20515;-57
2022/10/10 01:27:04;;;;;;;8.03;4.20;;;19.20;62.10;;;;;;5026827;28;20108;-57
2022/10/10 01:29:36;;;;;;;5.63;3.92;;;19.10;61.80;;;;;;5032756;28;20033;-53
2022/10/10 01:32:38;;;;;;;7.78;3.60;;;19.20;62.30;;;;;;5032405;28;20107;-53
2022/10/10 01:35:07;;;;;;;6.43;3.67;;;19.20;61.90;;;;;;5032757;28;20041;-56
2022/10/10 01:37:51;;;;;;;6.50;3.40;;;19.10;61.80;;;;;;5032477;28;20120;-55
2022/10/10 01:40:24;;;;;;;7.97;3.97;;;19.20;61.40;;;;;;5012829;28;20497;-55
2022/10/10 01:42:53;;;;;;;6.07;3.97;;;19.10;61.50;;;;;;5025818;28;20025;-55
2022/10/10 01:45:19;;;;;;;7.20;4.10;;;19.10;61.40;;;;;;5032081;28;20037;-56
2022/10/10 01:47:47;;;;;;;8.18;3.85;;;19.10;61.20;;;;;;5032218;28;20079;-55
2022/10/10 01:50:18;;;;;;;7.68;3.72;;;19.10;60.80;;;;;;5032343;28;20072;-53
2022/10/10 01:53:13;;;;;;;5.30;3.35;;;19.20;60.80;;;;;;5032327;28;20515;-53
2022/10/10 01:55:58;;;;;;;5.28;3.85;;;19.10;60.30;;;;;;5032656;28;20028;-51
2022/10/10 01:59:02;;;;;;;4.85;3.10;;;19.10;61.10;;;;;;5032199;28;20029;-53
2022/10/10 02:01:53;;;;;;;8.30;3.75;;;19.20;61.00;;;;;;5030862;28;20488;-57
2022/10/10 02:04:32;;;;;;;7.38;3.22;;;19.20;60.30;;;;;;5028588;28;20046;-55
2022/10/10 02:07:13;;;;;;;5.32;3.53;;;19.20;60.80;;;;;;5032348;28;20024;-55
2022/10/10 02:09:42;;;;;;;7.32;4.15;;;19.20;61.40;;;;;;5032022;28;20045;-55
2022/10/10 02:12:11;;;;;;;4.25;3.28;;;19.10;61.70;;;;;;5032230;28;20522;-55
2022/10/10 02:14:41;;;;;;;8.15;3.53;;;19.10;61.90;;;;;;5024414;28;20526;-56
2022/10/10 02:17:11;;;;;;;6.55;3.78;;;19.10;62.30;;;;;;5031870;28;20079;-53
2022/10/10 02:19:41;;;;;;;8.43;3.60;;;19.10;62.40;;;;;;5030189;28;20029;-56
2022/10/10 02:22:08;;;;;;;4.72;3.17;;;19.10;62.90;;;;;;5031940;28;20022;-55
2022/10/10 02:24:34;;;;;;;6.82;3.15;;;19.10;62.30;;;;;;5031915;28;20026;-58
2022/10/10 02:27:07;;;;;;;8.00;4.28;;;19.00;62.20;;;;;;5031573;28;20022;-58
2022/10/10 02:29:37;;;;;;;6.60;3.47;;;19.10;62.30;;;;;;5031633;28;20065;-55
2022/10/10 02:32:09;;;;;;;6.32;3.47;;;19.10;62.40;;;;;;5031787;28;20037;-56
2022/10/10 02:34:38;;;;;;;7.35;3.40;;;19.10;62.70;;;;;;5031289;28;20037;-53
2022/10/10 02:37:07;;;;;;;5.50;3.60;;;19.10;62.40;;;;;;5031499;28;20043;-56
2022/10/10 02:39:37;;;;;;;7.28;4.15;;;19.10;62.70;;;;;;5031440;28;20108;-54
2022/10/10 02:42:05;;;;;;;6.72;4.00;;;19.10;62.80;;;;;;5031234;28;20033;-55
2022/10/10 02:44:32;;;;;;;8.30;4.30;;;19.10;62.70;;;;;;5078368;23;20049;-55
2022/10/10 02:46:58;;;;;;;7.15;3.30;;;19.10;62.80;;;;;;5051276;28;20029;-57
2022/10/10 02:49:29;;;;;;;13.05;3.83;;;19.00;62.80;;;;;;5050914;28;20032;-56
2022/10/10 02:51:55;;;;;;;6.07;3.47;;;19.00;63.60;;;;;;5047972;28;20044;-57
2022/10/10 02:54:21;;;;;;;5.45;4.07;;;19.00;63.00;;;;;;5043477;28;20033;-55
2022/10/10 02:56:46;;;;;;;7.13;3.30;;;18.90;63.10;;;;;;5031425;28;20501;-52
2022/10/10 02:59:12;;;;;;;4.47;3.97;;;18.90;63.70;;;;;;5031096;28;20042;-56
2022/10/10 03:01:38;;;;;;;10.07;3.85;;;18.90;64.00;;;;;;5030882;28;20461;-56
2022/10/10 03:04:04;;;;;;;9.38;3.40;;;18.90;64.10;;;;;;5031240;28;20030;-55
2022/10/10 03:06:29;;;;;;;9.88;4.35;;;18.80;63.80;;;;;;5031062;28;20060;-54
2022/10/10 03:08:55;;;;;;;8.45;4.13;;;18.80;63.80;;;;;;5031376;28;20037;-54
2022/10/10 03:11:21;;;;;;;6.95;3.97;;;18.80;63.90;;;;;;5030298;28;20040;-57
2022/10/10 03:13:46;;;;;;;9.50;3.28;;;18.80;63.70;;;;;;5033207;28;20029;-57
2022/10/10 03:16:12;;;;;;;8.57;4.43;;;18.80;63.80;;;;;;5035375;28;20041;-56
2022/10/10 03:18:37;;;;;;;6.57;3.45;;;18.80;63.80;;;;;;5029939;28;20033;-56
2022/10/10 03:21:03;;;;;;;5.88;3.47;;;18.80;63.80;;;;;;5029545;28;20112;-57
2022/10/10 03:23:29;;;;;;;11.82;3.90;;;18.70;63.60;;;;;;5035031;28;20029;-54
2022/10/10 03:25:55;;;;;;;4.93;3.72;;;18.70;63.80;;;;;;5035077;28;20502;-56
2022/10/10 03:28:21;;;;;;;7.28;3.88;;;18.80;63.80;;;;;;5033316;28;20029;-52
2022/10/10 03:30:47;;;;;;;8.73;3.67;;;18.80;64.00;;;;;;5033788;28;20048;-54
2022/10/10 03:33:13;;;;;;;8.13;3.72;;;18.80;63.80;;;;;;5035225;28;20099;-57
2022/10/10 03:35:39;;;;;;;5.85;3.55;;;18.80;63.80;;;;;;5033512;28;20057;-58
2022/10/10 03:38:06;;;;;;;6.07;3.58;;;18.80;63.90;;;;;;5031765;28;20077;-56
2022/10/10 03:40:31;;;;;;;6.63;3.15;;;18.80;64.00;;;;;;5033473;28;20026;-55
2022/10/10 03:42:57;;;;;;;5.93;3.38;;;18.70;64.00;;;;;;5021755;28;20029;-55
2022/10/10 03:45:23;;;;;;;9.82;4.45;;;18.80;63.80;;;;;;5026290;28;20025;-53
2022/10/10 03:47:49;;;;;;;12.27;4.78;;;18.80;63.70;;;;;;5034975;28;20057;-55
2022/10/10 03:50:15;;;;;;;8.17;3.93;;;18.80;63.70;;;;;;5034670;28;20462;-53
2022/10/10 03:52:41;;;;;;;5.32;3.88;;;18.80;63.80;;;;;;5034871;28;20113;-53
2022/10/10 03:55:07;;;;;;;12.57;4.55;;;18.80;63.90;;;;;;5034379;28;20327;-55
2022/10/10 03:57:33;;;;;;;12.07;5.25;;;18.80;63.80;;;;;;5034167;28;20395;-55
2022/10/10 03:59:59;;;;;;;5.93;4.33;;;18.80;63.90;;;;;;5033540;28;20391;-52
2022/10/10 04:02:24;;;;;;;8.02;3.83;;;18.80;64.10;;;;;;5034470;28;20096;-55
2022/10/10 04:04:50;;;;;;;8.57;3.70;;;18.70;64.10;;;;;;5033343;28;20487;-53
2022/10/10 04:07:16;;;;;;;4.47;3.05;;;18.70;64.20;;;;;;5034665;28;20462;-54
2022/10/10 04:09:42;;;;;;;6.80;3.92;;;18.70;63.90;;;;;;5033192;28;20022;-53
2022/10/10 04:12:07;;;;;;;12.70;4.47;;;18.70;63.80;;;;;;5034401;28;20033;-53
2022/10/10 04:14:33;;;;;;;6.05;3.42;;;18.70;64.50;;;;;;5034488;28;20515;-53
2022/10/10 04:16:59;;;;;;;6.15;3.75;;;18.70;63.90;;;;;;5034479;28;20087;-54
2022/10/10 04:19:24;;;;;;;4.68;3.72;;;18.70;63.80;;;;;;5034132;28;20107;-52
2022/10/10 04:21:50;;;;;;;9.10;4.43;;;18.60;63.70;;;;;;5034347;28;20018;-53
2022/10/10 04:24:16;;;;;;;7.38;3.55;;;18.70;63.90;;;;;;5033915;28;20026;-53
2022/10/10 04:26:41;;;;;;;5.68;3.33;;;18.70;64.00;;;;;;5034216;28;20379;-55
2022/10/10 04:29:07;;;;;;;8.98;3.63;;;18.70;63.80;;;;;;5032777;28;20313;-52
2022/10/10 04:31:33;;;;;;;4.72;2.90;;;18.70;63.60;;;;;;5034218;28;20035;-52
2022/10/10 04:33:59;;;;;;;4.30;3.40;;;18.70;63.50;;;;;;5034056;28;20035;-55
2022/10/10 04:36:27;;;;;;;8.07;2.95;;;18.70;63.70;;;;;;5033478;28;20403;-56
2022/10/10 04:38:53;;;;;;;5.35;3.38;;;18.60;63.70;;;;;;5033606;28;20044;-55
2022/10/10 04:41:19;;;;;;;5.78;3.30;;;18.60;63.40;;;;;;5033173;28;20022;-54
2022/10/10 04:43:44;;;;;;;9.55;4.07;;;18.60;63.20;;;;;;5033689;28;20071;-52
2022/10/10 04:46:10;;;;;;;5.15;3.13;;;18.60;63.10;;;;;;5033962;28;20459;-54
2022/10/10 04:48:36;;;;;;;4.70;3.17;;;18.60;62.80;;;;;;5033773;28;20395;-54
2022/10/10 04:51:02;;;;;;;6.20;2.95;;;18.60;62.70;;;;;;5033934;28;20104;-55
2022/10/10 04:53:28;;;;;;;7.32;3.80;;;18.60;62.90;;;;;;5033757;28;20488;-55
2022/10/10 04:55:54;;;;;;;7.25;3.25;;;18.60;62.90;;;;;;5033677;28;20021;-52
2022/10/10 04:58:20;;;;;;;3.90;3.10;;;18.60;63.20;;;;;;5032166;28;20571;-52
2022/10/10 05:00:50;;;;;;;6.57;3.22;;;18.60;62.70;;;;;;5033718;28;20013;-52
2022/10/10 05:03:16;;;;;;;5.57;3.15;;;18.60;62.60;;;;;;5033739;28;20510;-55
2022/10/10 05:05:42;;;;;;;10.95;4.18;;;18.60;62.90;;;;;;5033474;28;20025;-54
2022/10/10 05:08:08;;;;;;;4.90;3.37;;;18.50;62.70;;;;;;5033491;28;20022;-55
2022/10/10 05:10:38;;;;;;;6.63;4.15;;;18.60;62.60;;;;;;5033378;28;20031;-54
2022/10/10 05:13:10;;;;;;;7.50;4.15;;;18.60;62.80;;;;;;5032141;28;20519;-52
2022/10/10 05:15:36;;;;;;;5.60;3.28;;;18.60;62.80;;;;;;5033328;28;20575;-53
2022/10/10 05:18:02;;;;;;;9.90;4.32;;;18.60;63.00;;;;;;5033351;28;20373;-54
2022/10/10 05:20:29;;;;;;;12.02;3.13;;;18.50;62.80;;;;;;5033137;28;20029;-52
2022/10/10 05:22:55;;;;;;;10.75;4.05;;;18.50;63.10;;;;;;5033224;28;20021;-53
2022/10/10 05:25:21;;;;;;;8.55;3.45;;;18.50;63.20;;;;;;5031553;28;20018;-54
2022/10/10 05:27:46;;;;;;;5.40;3.17;;;18.50;63.60;;;;;;5033199;28;20076;-52
2022/10/10 05:30:13;;;;;;;7.00;3.00;;;18.50;63.60;;;;;;5033044;28;20025;-55
2022/10/10 05:32:38;;;;;;;5.85;3.38;;;18.50;63.50;;;;;;5033083;28;20044;-55
2022/10/10 05:35:05;;;;;;;6.20;3.72;;;18.50;63.70;;;;;;5032175;28;20116;-56
2022/10/10 05:37:31;;;;;;;8.60;3.83;;;18.50;63.70;;;;;;5033487;28;20052;-52
2022/10/10 05:39:57;;;;;;;9.45;3.97;;;18.50;63.60;;;;;;5032525;28;20025;-55
2022/10/10 05:42:23;;;;;;;8.52;4.30;;;18.60;63.70;;;;;;5032888;28;20074;-53
2022/10/10 05:44:48;;;;;;;6.88;3.40;;;18.60;63.70;;;;;;5032722;28;20036;-53
2022/10/10 05:47:14;;;;;;;8.70;4.25;;;18.60;63.80;;;;;;5033057;28;20022;-53
2022/10/10 05:49:40;;;;;;;6.97;4.07;;;18.60;64.00;;;;;;5033216;28;20029;-54
2022/10/10 05:52:06;;;;;;;6.55;4.30;;;18.60;64.10;;;;;;5032979;28;20030;-55
2022/10/10 05:54:32;;;;;;;11.18;4.32;;;18.60;64.20;;;;;;5032414;28;20388;-55
2022/10/10 05:56:57;;;;;;;9.65;4.43;;;18.60;64.00;;;;;;5032571;28;20025;-55
2022/10/10 05:59:23;;;;;;;9.55;3.10;;;18.60;63.80;;;;;;5032383;28;20519;-54
2022/10/10 06:01:49;;;;;;;13.00;4.65;;;18.60;64.20;;;;;;5032598;28;20037;-55
2022/10/10 06:04:15;;;;;;;5.43;3.83;;;18.60;64.60;;;;;;5032471;28;20026;-55
2022/10/10 06:06:41;;;;;;;7.68;3.47;;;18.60;64.90;;;;;;5032397;28;20022;-54
2022/10/10 06:09:06;;;;;;;10.48;3.88;;;18.60;64.80;;;;;;5030926;28;20030;-55
2022/10/10 06:11:32;;;;;;;11.60;4.38;;;18.60;64.90;;;;;;5032310;28;20033;-54
2022/10/10 06:13:58;;;;;;;10.10;3.85;;;18.60;65.20;;;;;;5032260;28;20029;-55
2022/10/10 06:16:25;;;;;;;11.73;3.70;;;18.60;65.40;;;;;;5032232;28;20105;-55
2022/10/10 06:18:51;;;;;;;7.00;3.75;;;18.70;65.50;;;;;;5031949;28;20025;-55
2022/10/10 06:21:17;;;;;;;6.30;3.75;;;18.70;65.30;;;;;;5032173;28;20480;-54
2022/10/10 06:23:43;;;;;;;7.85;3.88;;;18.70;65.00;;;;;;5031858;28;20034;-55
2022/10/10 06:26:09;;;;;;;8.70;5.05;;;18.80;64.90;;;;;;5032060;28;20033;-54
2022/10/10 06:28:36;;;;;;;7.03;3.40;;;18.80;65.30;;;;;;5032089;28;20394;-55
2022/10/10 06:31:04;;;;;;;7.70;4.10;;;18.80;65.00;;;;;;5032161;28;20403;-52
2022/10/10 06:33:30;;;;;;;10.18;4.20;;;18.90;64.90;;;;;;5031936;28;20444;-55
2022/10/10 06:35:56;;;;;;;7.65;4.03;;;19.10;64.90;;;;;;5031901;28;20029;-54
2022/10/10 06:38:22;;;;;;;14.25;4.55;;;19.10;64.70;;;;;;5031651;28;20498;-55
2022/10/10 06:40:47;;;;;;;9.13;4.22;;;19.20;64.30;;;;;;5031912;28;20077;-55
2022/10/10 06:43:15;;;;;;;16.75;4.90;;;19.20;64.60;;;;;;5031910;28;20018;-54
2022/10/10 06:45:41;;;;;;;;;;;19.20;64.80;;;;;;5032074;28;20491;-54
2022/10/10 06:48:08;;;;;;;14.07;3.97;;;19.20;64.80;;;;;;5031657;28;19905;-53
2022/10/10 06:50:34;;;;;;;11.05;4.72;;;19.30;64.80;;;;;;5031789;28;20034;-53
2022/10/10 06:52:59;;;;;;;11.85;4.20;;;19.30;64.50;;;;;;5031696;28;20032;-54
2022/10/10 06:55:25;;;;;;;11.90;5.68;;;19.40;64.20;;;;;;5031623;28;20099;-54
2022/10/10 06:57:51;;;;;;;12.18;3.97;;;19.40;63.70;;;;;;5031595;28;20451;-55
2022/10/10 07:00:17;;;;;;;12.50;4.65;;;19.50;63.40;;;;;;5031798;28;20021;-53
2022/10/10 07:02:43;;;;;;;10.75;5.68;;;19.40;63.30;;;;;;5031586;28;20025;-54
2022/10/10 07:05:11;;;;;;;8.43;4.90;;;19.30;62.90;;;;;;5031437;28;20454;-55
2022/10/10 07:07:39;;;;;;;11.07;5.13;;;19.30;63.10;;;;;;5031389;28;20036;-55
2022/10/10 07:10:06;;;;;;;11.35;3.90;;;19.40;72.20;;;;;;5031570;28;20025;-55
2022/10/10 07:12:32;;;;;;;;;;;19.30;63.90;;;;;;5031998;28;20102;-55
2022/10/10 07:14:58;;;;;;;8.15;4.40;;;19.30;76.00;;;;;;5031434;28;20426;-56
2022/10/10 07:17:23;;;;;;;13.23;3.90;;;19.50;65.50;;;;;;5031411;28;20034;-55
2022/10/10 07:19:49;;;;;;;7.70;4.10;;;19.40;63.90;;;;;;5031134;28;20101;-56
2022/10/10 07:22:15;;;;;;;7.45;3.85;;;19.40;64.00;;;;;;5031482;28;20502;-55
2022/10/10 07:24:40;;;;;;;11.93;4.72;;;19.40;63.90;;;;;;5031300;28;20034;-55
2022/10/10 07:27:06;;;;;;;9.73;3.83;;;19.50;64.00;;;;;;5031447;28;20018;-56
2022/10/10 07:29:32;;;;;;;11.27;4.07;;;19.50;63.50;;;;;;5031241;28;20030;-54
2022/10/10 07:31:58;;;;;;;8.82;4.68;;;19.50;63.30;;;;;;5031416;28;20034;-55
2022/10/10 07:34:24;;;;;;;10.82;4.60;;;19.50;62.90;;;;;;5031201;28;20538;-55
2022/10/10 07:36:50;;;;;;;7.95;4.20;;;19.60;63.20;;;;;;5031366;28;20037;-52
2022/10/10 07:39:23;;;;;;;7.88;3.85;;;19.70;62.80;;;;;;5031071;28;20086;-54
2022/10/10 07:41:50;;;;;;;8.70;3.78;;;19.70;62.70;;;;;;5031284;28;20049;-54
2022/10/10 07:44:17;;;;;;;12.27;4.63;;;19.70;62.80;;;;;;5031175;28;20044;-52
2022/10/10 07:46:43;;;;;;;6.88;4.03;;;19.70;63.20;;;;;;5031197;28;20025;-53
2022/10/10 07:49:09;;;;;;;12.00;4.15;;;19.80;62.80;;;;;;5030990;28;20087;-54
2022/10/10 07:51:35;;;;;;;8.80;4.37;;;19.80;62.10;;;;;;5031069;28;20076;-54
2022/10/10 07:54:01;;;;;;;7.20;3.80;;;19.90;61.90;;;;;;5031280;28;20059;-52
2022/10/10 07:56:27;;;;;;;12.60;4.60;;;20.00;61.70;;;;;;5031222;28;20396;-54
2022/10/10 07:58:53;;;;;;;8.25;4.00;;;20.10;61.20;;;;;;5032805;28;20108;-53
2022/10/10 08:01:19;;;;;;;8.32;4.57;;;20.20;61.60;;;;;;5034755;28;20391;-52
2022/10/10 08:03:45;;;;;;;7.95;4.03;;;20.20;60.00;;;;;;5034581;28;20025;-54
2022/10/10 08:06:15;;;;;;;5.88;3.80;;;20.30;59.50;;;;;;5034625;28;20476;-52
2022/10/10 08:08:43;;;;;;;6.93;4.38;;;20.40;59.60;;;;;;5034756;28;20486;-52
2022/10/10 08:11:09;;;;;;;11.15;3.75;;;20.50;59.50;;;;;;5034714;28;20057;-52
2022/10/10 08:13:37;;;;;;;5.75;4.25;;;20.60;58.80;;;;;;5034949;28;20551;-55
2022/10/10 08:16:04;;;;;;;9.45;4.45;;;20.70;59.00;;;;;;5034485;28;20098;-55
2022/10/10 08:18:30;;;;;;;7.47;3.42;;;20.80;58.80;;;;;;5034215;28;20033;-52
2022/10/10 08:21:00;;;;;;;9.32;3.53;;;20.90;58.30;;;;;;5034706;28;20052;-52
2022/10/10 08:23:26;;;;;;;8.85;3.10;;;21.00;57.70;;;;;;5034432;28;20355;-53
2022/10/10 08:25:52;;;;;;;10.00;4.50;;;21.00;57.90;;;;;;5034419;28;20049;-54
2022/10/10 08:28:17;;;;;;;8.20;3.45;;;21.10;58.20;;;;;;5034218;28;20025;-53
2022/10/10 08:30:43;;;;;;;8.02;4.00;;;21.10;56.70;;;;;;5034207;28;20025;-52
2022/10/10 08:33:09;;;;;;;7.82;3.53;;;21.20;56.50;;;;;;5034254;28;20121;-55
2022/10/10 08:35:38;;;;;;;10.88;3.42;;;21.10;56.80;;;;;;5034113;28;20026;-55
2022/10/10 08:38:04;;;;;;;9.10;3.05;;;21.30;56.50;;;;;;5034121;28;20036;-55
2022/10/10 08:40:30;;;;;;;7.15;3.70;;;21.30;55.80;;;;;;5034376;28;20371;-54
2022/10/10 08:43:01;;;;;;;7.47;3.40;;;21.40;56.50;;;;;;5032718;28;20032;-54
2022/10/10 08:45:27;;;;;;;7.75;3.22;;;21.50;55.90;;;;;;5051644;23;20514;-54
2022/10/10 08:48:01;;;;;;;10.18;4.18;;;21.50;56.40;;;;;;5053709;28;20490;-54
2022/10/10 08:50:33;;;;;;;8.63;3.72;;;21.60;56.00;;;;;;5053735;28;20029;-53
2022/10/10 08:53:26;;;;;;;7.90;3.60;;;21.80;55.00;;;;;;5053843;28;20479;-54
2022/10/10 08:55:52;;;;;;;7.90;3.58;;;22.00;53.80;;;;;;5047855;28;20115;-53
2022/10/10 08:58:37;;;;;;;8.90;3.37;;;22.00;54.10;;;;;;5052224;28;20029;-54
2022/10/10 09:01:05;;;;;;;11.32;4.43;;;22.10;54.20;;;;;;5052417;28;20387;-54
2022/10/10 09:03:39;;;;;;;8.98;3.60;;;22.30;54.40;;;;;;5053635;28;20091;-54
2022/10/10 09:06:35;;;;;;;7.20;3.97;;;22.50;52.60;;;;;;5053348;28;20092;-52
2022/10/10 09:09:25;;;;;;;11.73;3.83;;;22.70;50.50;;;;;;5053060;28;20041;-55
2022/10/10 09:12:26;;;;;;;6.70;3.97;;;22.70;51.30;;;;;;5053113;28;20104;-55
2022/10/10 09:15:10;;;;;;;9.55;4.18;;;22.70;51.10;;;;;;5053198;28;20403;-53
2022/10/10 09:18:18;;;;;;;5.50;3.95;;;23.90;52.90;;;;;;5053364;28;20475;-54
2022/10/10 09:21:11;;;;;;;7.65;3.63;;;22.70;51.30;;;;;;5053102;28;20028;-53
2022/10/10 09:24:01;;;;;;;17.85;4.43;;;22.70;51.00;;;;;;5045258;28;20040;-52
2022/10/10 09:26:33;;;;;;;8.60;4.07;;;22.70;51.00;;;;;;5053659;28;20032;-55
2022/10/10 09:29:17;;;;;;;13.07;3.40;;;22.60;50.40;;;;;;5052962;28;20025;-53
2022/10/10 09:32:09;;;;;;;6.53;4.30;;;22.60;51.00;;;;;;5051793;28;20105;-52
2022/10/10 09:34:39;;;;;;;10.13;4.78;;;22.60;50.20;;;;;;5052982;28;20399;-53
2022/10/10 09:37:14;;;;;;;6.20;3.58;;;22.60;50.70;;;;;;5051686;28;20025;-56
2022/10/10 09:39:51;;;;;;;9.18;3.75;;;22.70;50.80;;;;;;5052705;28;20035;-53
2022/10/10 09:42:21;;;;;;;5.93;3.25;;;22.60;50.40;;;;;;5052962;28;20020;-54
2022/10/10 09:44:47;;;;;;;5.10;3.35;;;22.70;50.60;;;;;;5052647;28;20555;-52
2022/10/10 09:47:14;;;;;;;8.48;3.65;;;22.70;50.30;;;;;;5052798;28;20064;-53
2022/10/10 09:49:41;;;;;;;6.30;3.92;;;22.70;50.60;;;;;;5052516;28;20033;-53
2022/10/10 09:52:19;;;;;;;8.07;4.15;;;22.70;50.90;;;;;;5052582;28;20022;-55
2022/10/10 09:54:46;;;;;;;;;;;22.70;49.20;;;;;;5052989;28;20112;-54
2022/10/10 09:57:14;;;;;;;13.05;3.47;;;22.50;51.80;;;;;;5052571;28;20279;-55
2022/10/10 09:59:45;;;;;;;7.00;3.17;;;22.30;50.90;;;;;;5052445;28;20514;-55
2022/10/10 10:02:16;;;;;;;7.03;3.00;;;22.30;51.30;;;;;;5051139;28;20025;-53
2022/10/10 10:04:42;;;;;;;6.38;4.22;;;22.30;50.10;;;;;;5052224;28;20027;-55
2022/10/10 10:07:30;;;;;;;10.45;4.40;;;22.30;51.10;;;;;;5052340;28;20100;-53
2022/10/10 10:10:18;;;;;;;13.05;3.70;;;22.30;50.50;;;;;;5052132;28;20036;-54
2022/10/10 10:12:44;;;;;;;12.57;4.07;;;22.30;50.40;;;;;;5052002;28;20060;-54
2022/10/10 10:15:21;;;;;;;7.32;4.38;;;22.30;51.20;;;;;;5052063;28;20033;-55
2022/10/10 10:18:32;;;;;;;9.07;3.38;;;22.40;51.10;;;;;;5052676;28;20028;-53
2022/10/10 10:21:07;;;;;;;12.18;3.42;;;22.50;50.10;;;;;;5028772;28;20049;-55
2022/10/10 10:24:01;;;;;;;8.30;4.03;;;22.60;50.50;;;;;;5054693;28;20029;-55
2022/10/10 10:26:44;;;;;;;7.20;4.10;;;22.60;49.40;;;;;;5067316;28;20494;-56
2022/10/10 10:29:31;;;;;;;7.18;4.20;;;22.60;50.20;;;;;;5050548;28;20021;-55
2022/10/10 10:32:09;;;;;;;8.20;4.28;;;22.50;49.10;;;;;;5050879;28;20397;-54
2022/10/10 10:35:08;;;;;;;7.82;3.83;;;22.60;49.40;;;;;;5042364;28;20487;-55
2022/10/10 10:37:46;;;;;;;9.68;5.22;;;22.70;49.50;;;;;;5053707;28;20712;-54
2022/10/10 10:40:15;;;;;;;10.93;4.43;;;22.80;49.70;;;;;;5037793;28;20025;-56
2022/10/10 10:43:08;;;;;;;6.78;4.40;;;23.00;49.00;;;;;;5048305;28;20036;-54
2022/10/10 10:45:43;;;;;;;10.93;4.47;;;23.00;48.50;;;;;;5050169;28;20497;-55
2022/10/10 10:48:47;;;;;;;7.25;3.92;;;22.90;48.50;;;;;;5048431;28;20055;-54
2022/10/10 10:51:22;;;;;;;11.10;4.03;;;23.00;48.90;;;;;;5036715;28;20036;-56
2022/10/10 10:54:12;;;;;;;10.05;4.50;;;23.00;49.30;;;;;;5050348;28;20025;-55
2022/10/10 10:56:43;;;;;;;8.02;4.13;;;23.10;49.00;;;;;;5046582;28;20438;-53
2022/10/10 10:59:27;;;;;;;11.27;4.25;;;23.10;49.50;;;;;;5031479;28;20384;-54
2022/10/10 11:02:05;;;;;;;7.88;4.00;;;23.20;48.80;;;;;;5031581;28;20022;-55
2022/10/10 11:04:55;;;;;;;9.05;5.05;;;23.30;49.30;;;;;;5031631;28;20373;-54
2022/10/10 11:07:26;;;;;;;13.20;3.80;;;23.40;48.20;;;;;;5041610;28;20057;-55
2022/10/10 11:10:07;;;;;;;9.90;4.10;;;23.40;48.00;;;;;;5044627;28;20033;-56
2022/10/10 11:13:08;;;;;;;9.20;4.22;;;23.50;48.70;;;;;;5055095;28;20028;-54
2022/10/10 11:16:11;;;;;;;7.95;3.65;;;23.60;48.40;;;;;;5063534;28;20033;-52
2022/10/10 11:18:44;;;;;;;5.18;3.42;;;23.60;47.90;;;;;;5032823;28;20053;-56
2022/10/10 11:21:24;;;;;;;9.48;3.80;;;23.60;47.70;;;;;;5039625;28;20025;-54
2022/10/10 11:24:03;;;;;;;8.88;3.75;;;23.60;46.80;;;;;;5039308;28;20026;-53
2022/10/10 11:26:44;;;;;;;8.52;3.80;;;23.50;47.60;;;;;;5031328;28;20096;-53
2022/10/10 11:29:12;;;;;;;6.80;3.72;;;23.50;47.80;;;;;;5031418;28;20040;-53
2022/10/10 11:32:10;;;;;;;7.32;3.35;;;23.40;47.30;;;;;;5047034;28;20033;-56
2022/10/10 11:35:01;;;;;;;5.82;3.50;;;23.40;47.30;;;;;;5043408;28;20040;-55
2022/10/10 11:37:30;;;;;;;5.78;3.15;;;23.40;46.50;;;;;;5043288;28;20032;-56
2022/10/10 11:40:00;;;;;;;6.93;3.97;;;23.40;47.90;;;;;;5045236;28;20032;-56
2022/10/10 11:42:47;;;;;;;6.00;3.75;;;23.40;47.70;;;;;;5045674;28;20033;-54
2022/10/10 11:45:22;;;;;;;6.13;3.60;;;23.40;47.20;;;;;;5047944;28;20368;-54
2022/10/10 11:48:16;;;;;;;7.75;3.90;;;23.40;47.40;;;;;;5054133;28;20391;-53
2022/10/10 11:50:43;;;;;;;5.57;3.90;;;23.40;47.40;;;;;;5006529;28;20155;-56
2022/10/10 11:53:17;;;;;;;;;;;23.50;47.80;;;;;;5055360;28;20029;-55
2022/10/10 11:56:06;;;;;;;8.30;3.53;;;23.40;46.90;;;;;;5054890;28;19949;-54
2022/10/10 11:58:34;;;;;;;;;;;24.80;46.50;;;;;;5055051;28;20036;-55
2022/10/10 12:01:03;;;;;;;;;;;23.40;46.30;;;;;;5052227;28;19909;-55
2022/10/10 12:03:29;;;;;;;6.30;3.97;;;23.50;45.10;;;;;;5034695;28;19997;-56
2022/10/10 12:06:18;;;;;;;9.38;3.42;;;23.60;47.30;;;;;;5051328;28;20500;-52
2022/10/10 12:08:51;;;;;;;5.50;3.55;;;23.80;45.90;;;;;;5043647;28;20128;-55
2022/10/10 12:11:47;;;;;;;5.82;3.95;;;23.90;47.20;;;;;;5037871;28;20487;-55
2022/10/10 12:14:17;;;;;;;9.25;3.75;;;23.80;46.40;;;;;;5054692;28;20052;-53
2022/10/10 12:16:44;;;;;;;10.10;4.53;;;23.80;46.20;;;;;;5036831;28;20103;-53
2022/10/10 12:19:21;;;;;;;12.05;4.20;;;23.70;47.00;;;;;;5032998;28;20026;-53
2022/10/10 12:22:04;;;;;;;7.63;5.10;;;23.70;46.90;;;;;;5040478;28;20029;-53
2022/10/10 12:25:14;;;;;;;8.15;4.13;;;23.60;47.70;;;;;;5049724;28;20053;-56
2022/10/10 12:27:46;;;;;;;9.15;4.13;;;23.70;47.90;;;;;;5034368;28;20528;-54
2022/10/10 12:30:18;;;;;;;8.55;4.32;;;23.70;48.50;;;;;;5045331;28;20033;-55
2022/10/10 12:32:46;;;;;;;6.90;4.10;;;23.70;47.30;;;;;;5054125;28;20036;-56
2022/10/10 12:35:34;;;;;;;6.53;4.32;;;23.70;47.40;;;;;;5054230;28;20028;-53
2022/10/10 12:38:24;;;;;;;7.63;4.63;;;23.70;47.00;;;;;;5053410;28;20027;-56
2022/10/10 12:41:03;;;;;;;5.93;3.92;;;23.80;46.00;;;;;;5037679;28;20112;-54
2022/10/10 12:44:09;;;;;;;7.13;4.10;;;23.80;47.50;;;;;;5043139;28;20026;-56
2022/10/10 12:46:35;;;;;;;10.75;4.55;;;23.90;47.30;;;;;;5053708;28;20129;-56
2022/10/10 12:49:22;;;;;;;6.72;5.68;;;23.90;46.90;;;;;;5052465;28;20493;-55
2022/10/10 12:52:22;;;;;;;7.80;4.97;;;24.10;47.30;;;;;;5032695;28;20037;-54
2022/10/10 12:54:49;;;;;;;10.43;4.45;;;24.20;46.60;;;;;;5014581;28;20037;-56
2022/10/10 12:57:27;;;;;;;7.65;4.85;;;24.10;46.50;;;;;;5048552;28;20079;-55
2022/10/10 12:59:53;;;;;;;11.20;5.13;;;24.10;46.10;;;;;;5045404;28;20025;-55
2022/10/10 13:02:25;;;;;;;10.60;5.35;;;24.10;47.30;;;;;;5033734;28;20026;-54
2022/10/10 13:04:57;;;;;;;9.98;5.18;;;24.00;47.70;;;;;;5033407;28;20061;-56
2022/10/10 13:07:24;;;;;;;9.75;4.90;;;24.20;47.60;;;;;;5033595;28;20032;-54
2022/10/10 13:09:53;;;;;;;8.95;5.30;;;24.40;47.60;;;;;;5040045;28;20025;-56